Time;durP1;ratioP1;P1;durP2;ratioP2;P2;SDS_P1;SDS_P2;PMS_P1;PMS_P2;Temp;Humidity;BMP_temperature;BMP_pressure;BME280_temperature;BME280_humidity;BME280_pressure;Samples;Min_cycle;Max_cycle;Signal;HPM_P1;HPM_P2
2022/06/28 00:00:32;;;;;;;;;;;;;;;;;;5068570;28;1144;-73
2022/06/28 00:02:58;;;;;;;;;;;;;;;;;;5053737;28;921;-73
2022/06/28 00:05:24;;;;;;;;;;;;;;;;;;5053288;28;1072;-74
2022/06/28 00:07:52;;;;;;;;;;;;;;;;;;5052125;28;1318;-73
2022/06/28 00:10:18;;;;;;;;;;;;;;;;;;5052170;28;1475;-73
2022/06/28 00:12:44;;;;;;;;;;;;;;;;;;5052803;28;1914;-74
2022/06/28 00:17:55;;;;;;;;;;;;;;;;;;5020641;28;1330;-74
2022/06/28 00:20:21;;;;;;;;;;;;;;;;;;5052341;28;976;-74
2022/06/28 00:22:47;;;;;;;;;;;;;;;;;;5068218;28;1581;-73
2022/06/28 00:25:15;;;;;;;;;;;;;;;;;;5052388;28;1107;-74
2022/06/28 00:27:41;;;;;;;;;;;;;;;;;;5051725;28;1315;-74
2022/06/28 00:30:09;;;;;;;;;;;;;;;;;;5034726;28;1352;-73
2022/06/28 00:32:35;;;;;;;;;;;;;;;;;;5034661;28;1918;-73
2022/06/28 00:35:01;;;;;;;;;;;;;;;;;;5068131;28;1245;-73
2022/06/28 00:37:28;;;;;;;;;;;;;;;;;;5033371;28;1352;-74
2022/06/28 00:39:54;;;;;;;;;;;;;;;;;;5052146;28;826;-74
2022/06/28 00:42:22;;;;;;;;;;;;;;;;;;5067809;28;1486;-74
2022/06/28 00:44:49;;;;;;;;;;;;;;;;;;5052668;28;806;-73
2022/06/28 00:47:15;;;;;;;;;;;;;;;;;;5033609;28;1302;-74
2022/06/28 00:49:42;;;;;;;;;;;;;;;;;;5067634;28;1328;-74
2022/06/28 00:52:08;;;;;;;;;;;;;;;;;;5052207;28;1894;-73
2022/06/28 00:54:35;;;;;;;;;;;;;;;;;;5034161;28;1282;-73
2022/06/28 00:57:01;;;;;;;;;;;;;;;;;;5050405;28;1385;-73
2022/06/28 00:59:29;;;;;;;;;;;;;;;;;;5033864;28;1188;-73
2022/06/28 01:01:56;;;;;;;;;;;;;;;;;;5052154;28;989;-73
2022/06/28 01:04:22;;;;;;;;;;;;;;;;;;5051761;28;902;-73
2022/06/28 01:06:49;;;;;;;;;;;;;;;;;;5050736;28;1334;-73
2022/06/28 01:09:15;;;;;;;;;;;;;;;;;;5066675;28;1347;-73
2022/06/28 01:11:42;;;;;;;;;;;;;;;;;;5050885;28;1963;-73
2022/06/28 01:14:08;;;;;;;;;;;;;;;;;;5067367;28;1230;-73
2022/06/28 01:16:52;;;;;;;;;;;;;;;;;;5032922;28;1330;-73
2022/06/28 01:19:22;;;;;;;;;;;;;;;;;;5033513;28;1503;-73
2022/06/28 01:21:54;;;;;;;;;;;;;;;;;;5066962;28;1216;-73
2022/06/28 01:24:26;;;;;;;;;;;;;;;;;;5066917;28;1449;-73
2022/06/28 01:27:04;;;;;;;;;;;;;;;;;;5032534;28;1399;-73
2022/06/28 01:29:30;;;;;;;;;;;;;;;;;;5033370;28;1122;-72
2022/06/28 01:32:05;;;;;;;;;;;;;;;;;;5066449;28;1910;-73
2022/06/28 01:34:33;;;;;;;;;;;;;;;;;;5050236;28;1312;-73
2022/06/28 01:36:59;;;;;;;;;;;;;;;;;;5050463;28;1302;-73
2022/06/28 01:39:29;;;;;;;;;;;;;;;;;;5066512;28;1659;-73
2022/06/28 01:41:55;;;;;;;;;;;;;;;;;;5066745;28;1351;-73
2022/06/28 01:44:26;;;;;;;;;;;;;;;;;;5050157;28;1326;-73
2022/06/28 01:46:57;;;;;;;;;;;;;;;;;;5065818;28;1416;-73
2022/06/28 01:49:37;;;;;;;;;;;;;;;;;;5066097;28;1133;-73
2022/06/28 01:52:11;;;;;;;;;;;;;;;;;;5049887;28;1915;-74
2022/06/28 01:54:38;;;;;;;;;;;;;;;;;;5051260;28;1098;-73
2022/06/28 01:57:05;;;;;;;;;;;;;;;;;;5050368;28;1412;-73
2022/06/28 01:59:41;;;;;;;;;;;;;;;;;;5042848;28;2198;-73
2022/06/28 02:02:18;;;;;;;;;;;;;;;;;;5047408;28;931;-73
2022/06/28 02:05:03;;;;;;;;;;;;;;;;;;5032862;28;1468;-73
2022/06/28 02:07:33;;;;;;;;;;;;;;;;;;5031889;28;1511;-73
2022/06/28 02:10:00;;;;;;;;;;;;;;;;;;5045735;28;933;-73
2022/06/28 02:12:28;;;;;;;;;;;;;;;;;;5031015;28;1914;-73
2022/06/28 02:14:55;;;;;;;;;;;;;;;;;;5029473;28;1385;-73
2022/06/28 02:17:21;;;;;;;;;;;;;;;;;;5028233;28;1383;-73
2022/06/28 02:19:47;;;;;;;;;;;;;;;;;;5029515;28;1257;-73
2022/06/28 02:22:14;;;;;;;;;;;;;;;;;;5029005;28;1352;-73
2022/06/28 02:24:40;;;;;;;;;;;;;;;;;;5029663;28;1252;-73
2022/06/28 02:27:08;;;;;;;;;;;;;;;;;;5045434;28;1344;-73
2022/06/28 02:29:34;;;;;;;;;;;;;;;;;;5045618;28;1249;-74
2022/06/28 02:32:01;;;;;;;;;;;;;;;;;;5030515;28;1910;-73
2022/06/28 02:42:41;;;;;;;;;;;;;;;;;;5029189;28;929;-74
2022/06/28 02:45:07;;;;;;;;;;;;;;;;;;5029203;28;1223;-73
2022/06/28 02:47:33;;;;;;;;;;;;;;;;;;5029474;28;1464;-73
2022/06/28 02:50:00;;;;;;;;;;;;;;;;;;5028944;28;1208;-73
2022/06/28 02:52:26;;;;;;;;;;;;;;;;;;5030220;28;1968;-74
2022/06/28 02:54:52;;;;;;;;;;;;;;;;;;5030383;28;799;-73
2022/06/28 02:57:18;;;;;;;;;;;;;;;;;;5029220;28;1262;-73
2022/06/28 02:59:46;;;;;;;;;;;;;;;;;;5028426;28;1551;-73
2022/06/28 03:02:12;;;;;;;;;;;;;;;;;;5028843;28;1355;-73
2022/06/28 03:04:39;;;;;;;;;;;;;;;;;;5029013;28;1318;-73
2022/06/28 03:07:05;;;;;;;;;;;;;;;;;;5011627;28;1409;-73
2022/06/28 03:09:31;;;;;;;;;;;;;;;;;;5030853;28;771;-73
2022/06/28 03:11:57;;;;;;;;;;;;;;;;;;5030286;28;1969;-72
2022/06/28 03:14:24;;;;;;;;;;;;;;;;;;5030601;28;771;-73
2022/06/28 03:16:51;;;;;;;;;;;;;;;;;;5027624;28;1435;-73
2022/06/28 03:19:17;;;;;;;;;;;;;;;;;;5028481;28;1363;-73
2022/06/28 03:21:44;;;;;;;;;;;;;;;;;;5030143;28;1112;-72
2022/06/28 03:24:10;;;;;;;;;;;;;;;;;;5028597;28;1235;-72
2022/06/28 03:26:36;;;;;;;;;;;;;;;;;;5027867;28;1395;-72
2022/06/28 03:29:03;;;;;;;;;;;;;;;;;;5030037;28;1687;-71
2022/06/28 03:31:29;;;;;;;;;;;;;;;;;;5038559;28;1431;-71
2022/06/28 03:33:56;;;;;;;;;;;;;;;;;;5032916;28;1910;-71
2022/06/28 03:36:23;;;;;;;;;;;;;;;;;;5042373;28;1429;-71
2022/06/28 03:38:51;;;;;;;;;;;;;;;;;;5035669;28;1447;-71
2022/06/28 03:41:31;;;;;;;;;;;;;;;;;;5035619;28;1296;-71
2022/06/28 03:44:06;;;;;;;;;;;;;;;;;;5034624;28;1475;-71
2022/06/28 03:46:32;;;;;;;;;;;;;;;;;;5034674;28;1462;-72
2022/06/28 03:49:19;;;;;;;;;;;;;;;;;;5052292;28;1384;-72
2022/06/28 03:51:53;;;;;;;;;;;;;;;;;;5032013;28;1418;-71
2022/06/28 03:54:46;;;;;;;;;;;;;;;;;;5052182;28;1336;-72
2022/06/28 03:57:22;;;;;;;;;;;;;;;;;;5033614;28;1463;-71
2022/06/28 03:59:48;;;;;;;;;;;;;;;;;;5035358;28;1303;-72
2022/06/28 04:02:15;;;;;;;;;;;;;;;;;;5033636;28;1439;-72
2022/06/28 04:04:43;;;;;;;;;;;;;;;;;;5035107;28;1728;-72
2022/06/28 04:07:10;;;;;;;;;;;;;;;;;;5033288;28;1420;-72
2022/06/28 04:09:37;;;;;;;;;;;;;;;;;;5035214;28;1375;-72
2022/06/28 04:12:04;;;;;;;;;;;;;;;;;;5035121;28;1293;-72
2022/06/28 04:14:31;;;;;;;;;;;;;;;;;;5033846;28;1985;-72
2022/06/28 04:16:57;;;;;;;;;;;;;;;;;;5025946;28;1401;-72
2022/06/28 04:19:38;;;;;;;;;;;;;;;;;;5035028;28;1209;-72
2022/06/28 04:22:05;;;;;;;;;;;;;;;;;;5032952;28;1605;-71
2022/06/28 04:24:33;;;;;;;;;;;;;;;;;;5034957;28;1617;-72
2022/06/28 04:27:07;;;;;;;;;;;;;;;;;;5033288;28;1443;-73
2022/06/28 04:29:34;;;;;;;;;;;;;;;;;;5041085;28;1395;-72
2022/06/28 04:32:02;;;;;;;;;;;;;;;;;;5032800;28;1249;-72
2022/06/28 04:34:29;;;;;;;;;;;;;;;;;;5049996;28;1914;-72
2022/06/28 04:36:57;;;;;;;;;;;;;;;;;;5032546;28;1408;-73
2022/06/28 04:39:25;;;;;;;;;;;;;;;;;;5032713;28;1403;-72
2022/06/28 04:42:05;;;;;;;;;;;;;;;;;;5032869;28;1250;-72
2022/06/28 04:44:34;;;;;;;;;;;;;;;;;;5049772;28;1311;-73
2022/06/28 04:47:01;;;;;;;;;;;;;;;;;;5032795;28;1423;-72
2022/06/28 04:49:29;;;;;;;;;;;;;;;;;;5033953;28;1312;-72
2022/06/28 04:51:57;;;;;;;;;;;;;;;;;;5033422;28;1339;-72
2022/06/28 04:54:35;;;;;;;;;;;;;;;;;;5048995;28;1973;-73
2022/06/28 04:57:20;;;;;;;;;;;;;;;;;;5048782;28;1387;-72
2022/06/28 05:00:06;;;;;;;;;;;;;;;;;;5031978;28;1380;-73
2022/06/28 05:02:37;;;;;;;;;;;;;;;;;;5059229;28;1391;-73
2022/06/28 05:05:07;;;;;;;;;;;;;;;;;;5049951;28;1398;-72
2022/06/28 05:07:39;;;;;;;;;;;;;;;;;;5046587;28;1432;-72
2022/06/28 05:10:12;;;;;;;;;;;;;;;;;;5030999;28;1469;-72
2022/06/28 05:12:46;;;;;;;;;;;;;;;;;;5030697;28;1910;-73
2022/06/28 05:15:12;;;;;;;;;;;;;;;;;;5027215;28;1492;-71
2022/06/28 05:17:59;;;;;;;;;;;;;;;;;;5030418;28;1401;-73
2022/06/28 05:20:25;;;;;;;;;;;;;;;;;;5045156;28;1139;-73
2022/06/28 05:22:52;;;;;;;;;;;;;;;;;;5032889;28;1544;-72
2022/06/28 05:25:38;;;;;;;;;;;;;;;;;;5050921;28;659;-71
2022/06/28 05:28:04;;;;;;;;;;;;;;;;;;5031426;28;1657;-72
2022/06/28 05:30:31;;;;;;;;;;;;;;;;;;5050720;28;1064;-72
2022/06/28 05:32:57;;;;;;;;;;;;;;;;;;5050249;28;1910;-72
2022/06/28 05:35:23;;;;;;;;;;;;;;;;;;5050765;28;1131;-72
2022/06/28 05:37:49;;;;;;;;;;;;;;;;;;5031269;28;1444;-71
2022/06/28 05:40:15;;;;;;;;;;;;;;;;;;5050352;28;1063;-72
2022/06/28 05:42:43;;;;;;;;;;;;;;;;;;5032501;28;1259;-72
2022/06/28 05:45:10;;;;;;;;;;;;;;;;;;5032065;28;1190;-72
2022/06/28 05:47:36;;;;;;;;;;;;;;;;;;5048399;28;1452;-72
2022/06/28 05:50:02;;;;;;;;;;;;;;;;;;5032780;28;1258;-72
2022/06/28 05:52:28;;;;;;;;;;;;;;;;;;5031005;28;1185;-72
2022/06/28 05:54:55;;;;;;;;;;;;;;;;;;5033054;28;1918;-72
2022/06/28 05:57:21;;;;;;;;;;;;;;;;;;5032047;28;1403;-72
2022/06/28 05:59:48;;;;;;;;;;;;;;;;;;5033384;28;1380;-72
2022/06/28 06:02:15;;;;;;;;;;;;;;;;;;5032878;28;1329;-72
2022/06/28 06:04:41;;;;;;;;;;;;;;;;;;5033597;28;1252;-73
2022/06/28 06:07:07;;;;;;;;;;;;;;;;;;5064653;28;1299;-73
2022/06/28 06:09:33;;;;;;;;;;;;;;;;;;5032712;28;1187;-72
2022/06/28 06:12:00;;;;;;;;;;;;;;;;;;5032351;28;1184;-72
2022/06/28 06:14:26;;;;;;;;;;;;;;;;;;5050545;28;1914;-72
2022/06/28 06:16:53;;;;;;;;;;;;;;;;;;5061544;28;1522;-72
2022/06/28 06:19:21;;;;;;;;;;;;;;;;;;5031999;28;1354;-72
2022/06/28 06:21:47;;;;;;;;;;;;;;;;;;5028910;28;1240;-72
2022/06/28 06:24:14;;;;;;;;;;;;;;;;;;5049032;28;1227;-71
2022/06/28 06:27:01;;;;;;;;;;;;;;;;;;5062160;28;1549;-73
2022/06/28 06:29:28;;;;;;;;;;;;;;;;;;5031565;28;1299;-73
2022/06/28 06:31:57;;;;;;;;;;;;;;;;;;5031392;28;1328;-71
2022/06/28 06:34:46;;;;;;;;;;;;;;;;;;5031367;28;1975;-73
2022/06/28 06:37:13;;;;;;;;;;;;;;;;;;5027479;28;1495;-73
2022/06/28 06:39:40;;;;;;;;;;;;;;;;;;5031468;28;1539;-73
2022/06/28 06:42:07;;;;;;;;;;;;;;;;;;5031189;28;1384;-73
2022/06/28 06:44:34;;;;;;;;;;;;;;;;;;5028634;28;1323;-73
2022/06/28 06:47:05;;;;;;;;;;;;;;;;;;5029745;28;1531;-72
2022/06/28 06:49:32;;;;;;;;;;;;;;;;;;5049198;28;1144;-71
2022/06/28 06:51:58;;;;;;;;;;;;;;;;;;5048913;28;1226;-72
2022/06/28 06:54:26;;;;;;;;;;;;;;;;;;5033903;28;1969;-71
2022/06/28 06:56:52;;;;;;;;;;;;;;;;;;5032723;28;2097;-71
2022/06/28 06:59:18;;;;;;;;;;;;;;;;;;5050827;28;1067;-71
2022/06/28 07:01:45;;;;;;;;;;;;;;;;;;5065521;28;1383;-71
2022/06/28 07:04:20;;;;;;;;;;;;;;;;;;5034499;28;1429;-71
2022/06/28 07:06:47;;;;;;;;;;;;;;;;;;5052912;28;1270;-71
2022/06/28 07:09:14;;;;;;;;;;;;;;;;;;5053759;28;949;-71
2022/06/28 07:11:41;;;;;;;;;;;;;;;;;;5036114;28;1119;-71
2022/06/28 07:14:08;;;;;;;;;;;;;;;;;;5036129;28;1922;-72
2022/06/28 07:16:34;;;;;;;;;;;;;;;;;;5025377;28;1362;-72
2022/06/28 07:19:01;;;;;;;;;;;;;;;;;;5015207;28;1231;-72
2022/06/28 07:21:28;;;;;;;;;;;;;;;;;;5014909;28;1153;-71
2022/06/28 07:23:54;;;;;;;;;;;;;;;;;;5015336;28;1088;-71
2022/06/28 07:26:21;;;;;;;;;;;;;;;;;;5014178;28;1571;-72
2022/06/28 07:28:48;;;;;;;;;;;;;;;;;;5015422;28;1185;-72
2022/06/28 07:31:15;;;;;;;;;;;;;;;;;;5048167;28;1474;-71
2022/06/28 07:33:41;;;;;;;;;;;;;;;;;;5023043;28;1918;-72
2022/06/28 07:36:08;;;;;;;;;;;;;;;;;;5033731;28;1411;-73
2022/06/28 07:38:35;;;;;;;;;;;;;;;;;;5034768;28;1152;-72
2022/06/28 07:41:37;;;;;;;;;;;;;;;;;;4990792;28;795;-73
2022/06/28 07:44:21;;;;;;;;;;;;;;;;;;5047538;28;1015;-73
2022/06/28 07:46:48;;;;;;;;;;;;;;;;;;5033157;28;1372;-73
2022/06/28 07:49:15;;;;;;;;;;;;;;;;;;5033982;28;1545;-73
2022/06/28 07:54:27;;;;;;;;;;;;;;;;;;5054633;28;1985;-73
2022/06/28 07:57:01;;;;;;;;;;;;;;;;;;5050497;28;1465;-73
2022/06/28 07:59:29;;;;;;;;;;;;;;;;;;5062532;28;2105;-73
2022/06/28 08:01:55;;;;;;;;;;;;;;;;;;5046358;28;1446;-72
2022/06/28 08:04:27;;;;;;;;;;;;;;;;;;5033563;28;1443;-72
2022/06/28 08:06:58;;;;;;;;;;;;;;;;;;5066232;28;1441;-72
2022/06/28 08:09:24;;;;;;;;;;;;;;;;;;5034612;28;1296;-73
2022/06/28 08:11:52;;;;;;;;;;;;;;;;;;5034227;28;1312;-72
2022/06/28 08:14:20;;;;;;;;;;;;;;;;;;5033255;28;1918;-72
2022/06/28 08:16:46;;;;;;;;;;;;;;;;;;5032653;28;1513;-72
2022/06/28 08:19:15;;;;;;;;;;;;;;;;;;5066366;22;4107;-74
2022/06/28 08:21:42;;;;;;;;;;;;;;;;;;5008695;28;1299;-73
2022/06/28 08:24:09;;;;;;;;;;;;;;;;;;5044022;28;1206;-73
2022/06/28 08:26:42;;;;;;;;;;;;;;;;;;5010427;28;1483;-74
2022/06/28 08:29:09;;;;;;;;;;;;;;;;;;5011894;28;1338;-74
2022/06/28 08:31:36;;;;;;;;;;;;;;;;;;5010843;28;1195;-74
2022/06/28 08:34:02;;;;;;;;;;;;;;;;;;5010896;28;1914;-74
2022/06/28 08:36:28;;;;;;;;;;;;;;;;;;5011667;28;1167;-74
2022/06/28 08:38:54;;;;;;;;;;;;;;;;;;5012305;28;1325;-74
2022/06/28 08:41:21;;;;;;;;;;;;;;;;;;5011640;28;1009;-74
2022/06/28 08:43:47;;;;;;;;;;;;;;;;;;5010456;28;1401;-74
2022/06/28 08:46:14;;;;;;;;;;;;;;;;;;5010482;28;878;-74
2022/06/28 08:48:41;;;;;;;;;;;;;;;;;;5012044;28;1341;-74
2022/06/28 08:51:08;;;;;;;;;;;;;;;;;;5010686;28;1458;-74
2022/06/28 08:53:35;;;;;;;;;;;;;;;;;;5011471;28;1319;-74
2022/06/28 08:56:01;;;;;;;;;;;;;;;;;;5011709;28;2258;-73
2022/06/28 08:58:27;;;;;;;;;;;;;;;;;;5010860;28;1310;-74
2022/06/28 09:00:53;;;;;;;;;;;;;;;;;;5012066;28;893;-74
2022/06/28 09:03:21;;;;;;;;;;;;;;;;;;5011813;28;1068;-74
2022/06/28 09:05:47;;;;;;;;;;;;;;;;;;5017439;28;1242;-73
2022/06/28 09:08:13;;;;;;;;;;;;;;;;;;5016332;28;1364;-74
2022/06/28 09:10:39;;;;;;;;;;;;;;;;;;5012771;28;997;-74
2022/06/28 09:13:06;;;;;;;;;;;;;;;;;;5011058;28;803;-74
2022/06/28 09:15:44;;;;;;;;;;;;;;;;;;5010250;28;1919;-75
2022/06/28 09:18:11;;;;;;;;;;;;;;;;;;5010246;28;1529;-74
2022/06/28 09:20:38;;;;;;;;;;;;;;;;;;5010098;28;1308;-74
2022/06/28 09:23:05;;;;;;;;;;;;;;;;;;5011098;28;846;-74
2022/06/28 09:25:32;;;;;;;;;;;;;;;;;;5010696;28;772;-74
2022/06/28 09:27:58;;;;;;;;;;;;;;;;;;5009602;28;1420;-74
2022/06/28 09:30:25;;;;;;;;;;;;;;;;;;5011038;28;1103;-74
2022/06/28 09:32:51;;;;;;;;;;;;;;;;;;5009154;28;1161;-74
2022/06/28 09:35:17;;;;;;;;;;;;;;;;;;5010053;28;1977;-74
2022/06/28 09:37:47;;;;;;;;;;;;;;;;;;5010207;28;1529;-74
2022/06/28 09:40:14;;;;;;;;;;;;;;;;;;5010799;28;890;-74
2022/06/28 09:42:41;;;;;;;;;;;;;;;;;;5009512;28;1156;-74
2022/06/28 09:45:08;;;;;;;;;;;;;;;;;;5010186;28;1103;-74
2022/06/28 09:47:34;;;;;;;;;;;;;;;;;;5041652;28;1412;-73
2022/06/28 09:50:00;;;;;;;;;;;;;;;;;;5010550;28;1059;-74
2022/06/28 09:52:27;;;;;;;;;;;;;;;;;;5010647;28;1123;-74
2022/06/28 09:54:56;;;;;;;;;;;;;;;;;;5010527;28;1914;-74
2022/06/28 09:57:22;;;;;;;;;;;;;;;;;;5009650;28;1467;-73
2022/06/28 09:59:48;;;;;;;;;;;;;;;;;;5009119;28;1193;-75
2022/06/28 10:02:16;;;;;;;;;;;;;;;;;;5009187;28;1152;-74
2022/06/28 10:04:42;;;;;;;;;;;;;;;;;;5010839;28;1120;-74
2022/06/28 10:07:09;;;;;;;;;;;;;;;;;;5008279;28;1343;-75
2022/06/28 10:09:35;;;;;;;;;;;;;;;;;;5010031;28;1403;-75
2022/06/28 10:15:04;;;;;;;;;;;;;;;;;;5009840;28;1975;-74
2022/06/28 10:17:44;;;;;;;;;;;;;;;;;;5008161;28;1475;-73
2022/06/28 10:20:12;;;;;;;;;;;;;;;;;;5010362;28;1064;-74
2022/06/28 10:22:38;;;;;;;;;;;;;;;;;;5010259;28;1139;-74
2022/06/28 10:25:13;;;;;;;;;;;;;;;;;;5009866;28;850;-74
2022/06/28 10:27:44;;;;;;;;;;;;;;;;;;5009124;28;1390;-74
2022/06/28 10:30:20;;;;;;;;;;;;;;;;;;5009948;28;1318;-74
2022/06/28 10:32:48;;;;;;;;;;;;;;;;;;5009681;28;1064;-73
2022/06/28 10:35:41;;;;;;;;;;;;;;;;;;5008458;28;1979;-75
2022/06/28 10:38:17;;;;;;;;;;;;;;;;;;5008454;28;1419;-75
2022/06/28 10:40:47;;;;;;;;;;;;;;;;;;5010255;28;1077;-74
2022/06/28 10:43:14;;;;;;;;;;;;;;;;;;5010342;28;1021;-74
2022/06/28 10:45:56;;;;;;;;;;;;;;;;;;5009436;28;1041;-74
2022/06/28 10:48:22;;;;;;;;;;;;;;;;;;5008921;28;1287;-74
2022/06/28 10:50:55;;;;;;;;;;;;;;;;;;5009473;28;1131;-75
2022/06/28 10:53:21;;;;;;;;;;;;;;;;;;5009861;28;597;-75
2022/06/28 10:56:02;;;;;;;;;;;;;;;;;;5009219;28;1973;-74
2022/06/28 10:58:30;;;;;;;;;;;;;;;;;;5009060;28;1401;-76
2022/06/28 11:00:56;;;;;;;;;;;;;;;;;;5008686;28;1160;-76
2022/06/28 11:03:22;;;;;;;;;;;;;;;;;;5010046;28;1060;-76
2022/06/28 11:05:52;;;;;;;;;;;;;;;;;;5010091;28;1100;-76
2022/06/28 11:08:35;;;;;;;;;;;;;;;;;;5008901;28;1395;-76
2022/06/28 11:11:02;;;;;;;;;;;;;;;;;;5009683;28;885;-76
2022/06/28 11:13:29;;;;;;;;;;;;;;;;;;5009949;28;1040;-75
2022/06/28 11:15:55;;;;;;;;;;;;;;;;;;5009242;28;1980;-74
2022/06/28 11:18:23;;;;;;;;;;;;;;;;;;5008105;28;1321;-76
2022/06/28 11:20:49;;;;;;;;;;;;;;;;;;5009637;28;878;-75
2022/06/28 11:23:22;;;;;;;;;;;;;;;;;;5009672;28;1075;-75
2022/06/28 11:28:33;;;;;;;;;;;;;;;;;;5007826;28;1326;-75
2022/06/28 11:30:59;;;;;;;;;;;;;;;;;;5009253;28;1808;-76
2022/06/28 11:33:31;;;;;;;;;;;;;;;;;;5008096;28;1537;-75
2022/06/28 11:35:59;;;;;;;;;;;;;;;;;;5009272;28;1979;-75
2022/06/28 11:38:25;;;;;;;;;;;;;;;;;;5008454;28;1315;-75
2022/06/28 11:40:52;;;;;;;;;;;;;;;;;;5009784;28;1012;-74
2022/06/28 11:43:18;;;;;;;;;;;;;;;;;;5009816;28;1107;-75
2022/06/28 11:45:46;;;;;;;;;;;;;;;;;;5009861;28;1115;-75
2022/06/28 11:48:13;;;;;;;;;;;;;;;;;;5007495;28;1356;-74
2022/06/28 11:50:40;;;;;;;;;;;;;;;;;;5010657;28;1133;-74
2022/06/28 11:53:06;;;;;;;;;;;;;;;;;;5012558;28;787;-74
2022/06/28 11:55:37;;;;;;;;;;;;;;;;;;5012365;28;1914;-74
2022/06/28 11:58:10;;;;;;;;;;;;;;;;;;5043973;28;1408;-75
2022/06/28 12:00:37;;;;;;;;;;;;;;;;;;5012828;28;854;-74
2022/06/28 12:03:06;;;;;;;;;;;;;;;;;;5012764;28;1083;-74
2022/06/28 12:05:32;;;;;;;;;;;;;;;;;;5011717;28;1267;-74
2022/06/28 12:07:59;;;;;;;;;;;;;;;;;;5010523;28;1431;-73
2022/06/28 12:10:25;;;;;;;;;;;;;;;;;;5011300;28;1112;-73
2022/06/28 12:12:52;;;;;;;;;;;;;;;;;;5012507;28;899;-73
2022/06/28 12:15:28;;;;;;;;;;;;;;;;;;4999769;28;1984;-73
2022/06/28 12:17:56;;;;;;;;;;;;;;;;;;4992339;28;1330;-73
2022/06/28 12:20:24;;;;;;;;;;;;;;;;;;4995224;28;1056;-73
2022/06/28 12:22:57;;;;;;;;;;;;;;;;;;4998329;28;1101;-73
2022/06/28 12:25:23;;;;;;;;;;;;;;;;;;5014488;28;1614;-74
2022/06/28 12:27:49;;;;;;;;;;;;;;;;;;5011768;28;1410;-74
2022/06/28 12:30:15;;;;;;;;;;;;;;;;;;5011968;28;1055;-74
2022/06/28 12:32:42;;;;;;;;;;;;;;;;;;5012226;28;882;-74
2022/06/28 12:35:08;;;;;;;;;;;;;;;;;;5012055;28;1906;-74
2022/06/28 12:37:37;;;;;;;;;;;;;;;;;;5011217;28;1297;-74
2022/06/28 12:40:04;;;;;;;;;;;;;;;;;;5011411;28;1127;-72
2022/06/28 12:42:30;;;;;;;;;;;;;;;;;;5011208;28;1145;-73
2022/06/28 12:44:56;;;;;;;;;;;;;;;;;;5002204;28;1174;-73
2022/06/28 12:47:22;;;;;;;;;;;;;;;;;;5010888;28;1338;-73
2022/06/28 12:49:49;;;;;;;;;;;;;;;;;;5012021;28;964;-73
2022/06/28 12:52:15;;;;;;;;;;;;;;;;;;5011475;28;1519;-73
2022/06/28 12:54:42;;;;;;;;;;;;;;;;;;5012016;28;839;-73
2022/06/28 12:57:09;;;;;;;;;;;;;;;;;;5010925;28;1919;-73
2022/06/28 12:59:35;;;;;;;;;;;;;;;;;;5011671;28;1417;-73
2022/06/28 13:02:01;;;;;;;;;;;;;;;;;;5011075;28;985;-73
2022/06/28 13:04:27;;;;;;;;;;;;;;;;;;5011806;28;1126;-73
2022/06/28 13:06:53;;;;;;;;;;;;;;;;;;5010776;28;1140;-73
2022/06/28 13:09:19;;;;;;;;;;;;;;;;;;5011336;28;1374;-72
2022/06/28 13:11:47;;;;;;;;;;;;;;;;;;5011653;28;977;-73
2022/06/28 13:14:13;;;;;;;;;;;;;;;;;;5011617;28;1072;-74
2022/06/28 13:16:39;;;;;;;;;;;;;;;;;;5010036;28;1906;-74
2022/06/28 13:19:06;;;;;;;;;;;;;;;;;;5011051;28;1318;-73
2022/06/28 13:21:33;;;;;;;;;;;;;;;;;;5011707;28;883;-73
2022/06/28 13:23:59;;;;;;;;;;;;;;;;;;5011186;28;1076;-75
2022/06/28 13:26:25;;;;;;;;;;;;;;;;;;5009954;28;965;-74
2022/06/28 13:28:53;;;;;;;;;;;;;;;;;;5009187;28;1375;-75
2022/06/28 13:31:19;;;;;;;;;;;;;;;;;;5011246;28;1080;-74
2022/06/28 13:33:45;;;;;;;;;;;;;;;;;;5011110;28;1069;-74
2022/06/28 13:36:11;;;;;;;;;;;;;;;;;;5009982;28;1914;-75
2022/06/28 13:38:39;;;;;;;;;;;;;;;;;;5010451;28;1326;-75
2022/06/28 13:41:05;;;;;;;;;;;;;;;;;;5010823;28;1131;-75
2022/06/28 13:43:34;;;;;;;;;;;;;;;;;;5009722;28;922;-74
2022/06/28 13:46:02;;;;;;;;;;;;;;;;;;5010238;28;1087;-75
2022/06/28 13:48:28;;;;;;;;;;;;;;;;;;5010132;28;1368;-76
2022/06/28 13:50:55;;;;;;;;;;;;;;;;;;5010662;28;1068;-75
2022/06/28 13:53:21;;;;;;;;;;;;;;;;;;5010890;28;977;-75
2022/06/28 13:55:47;;;;;;;;;;;;;;;;;;5010357;28;1918;-74
2022/06/28 13:58:14;;;;;;;;;;;;;;;;;;5009150;28;1399;-75
2022/06/28 14:00:41;;;;;;;;;;;;;;;;;;5005550;28;2025;-73
2022/06/28 14:03:10;;;;;;;;;;;;;;;;;;5007231;28;1761;-73
2022/06/28 14:05:36;;;;;;;;;;;;;;;;;;5004011;28;1063;-74
2022/06/28 14:08:02;;;;;;;;;;;;;;;;;;5007666;28;1334;-74
2022/06/28 14:10:29;;;;;;;;;;;;;;;;;;5009055;28;1489;-75
2022/06/28 14:12:56;;;;;;;;;;;;;;;;;;5010241;28;1410;-75
2022/06/28 14:15:22;;;;;;;;;;;;;;;;;;5010364;28;1979;-74
2022/06/28 14:17:48;;;;;;;;;;;;;;;;;;5009251;28;1415;-75
2022/06/28 14:20:16;;;;;;;;;;;;;;;;;;5010767;28;839;-75
2022/06/28 14:22:42;;;;;;;;;;;;;;;;;;5010588;28;957;-76
2022/06/28 14:25:09;;;;;;;;;;;;;;;;;;5010701;28;1071;-76
2022/06/28 14:27:35;;;;;;;;;;;;;;;;;;5007820;28;1388;-76
2022/06/28 14:30:01;;;;;;;;;;;;;;;;;;5010821;28;783;-76
2022/06/28 14:32:27;;;;;;;;;;;;;;;;;;5010447;28;894;-74
2022/06/28 14:34:54;;;;;;;;;;;;;;;;;;5010606;28;787;-75
2022/06/28 14:37:21;;;;;;;;;;;;;;;;;;5008900;28;1977;-74
2022/06/28 14:39:47;;;;;;;;;;;;;;;;;;5010505;28;1080;-74
2022/06/28 14:42:13;;;;;;;;;;;;;;;;;;5008948;28;1238;-74
2022/06/28 14:44:40;;;;;;;;;;;;;;;;;;5009415;28;1224;-74
2022/06/28 14:47:06;;;;;;;;;;;;;;;;;;5007942;28;1252;-74
2022/06/28 14:49:32;;;;;;;;;;;;;;;;;;5009849;28;1365;-75
2022/06/28 14:51:58;;;;;;;;;;;;;;;;;;5010136;28;1124;-75
2022/06/28 14:54:26;;;;;;;;;;;;;;;;;;5010211;28;881;-74
2022/06/28 14:56:52;;;;;;;;;;;;;;;;;;5008612;28;1918;-74
2022/06/28 14:59:18;;;;;;;;;;;;;;;;;;5010023;28;1413;-74
2022/06/28 15:01:45;;;;;;;;;;;;;;;;;;5008840;28;1227;-74
2022/06/28 15:04:11;;;;;;;;;;;;;;;;;;5009688;28;1084;-74
2022/06/28 15:06:37;;;;;;;;;;;;;;;;;;5008560;28;945;-74
2022/06/28 15:09:03;;;;;;;;;;;;;;;;;;5041719;28;1398;-73
2022/06/28 15:11:32;;;;;;;;;;;;;;;;;;5009902;28;1080;-74
2022/06/28 15:13:58;;;;;;;;;;;;;;;;;;5009921;28;953;-74
2022/06/28 15:16:24;;;;;;;;;;;;;;;;;;5008817;28;1939;-73
2022/06/28 15:18:50;;;;;;;;;;;;;;;;;;5009709;28;1431;-74
2022/06/28 15:32:12;;;;;;;;;;;;;;;;;;5013370;28;1009;-73
2022/06/28 15:34:38;;;;;;;;;;;;;;;;;;5017446;28;1095;-75
2022/06/28 15:37:04;;;;;;;;;;;;;;;;;;5067304;23;2464;-78
2022/06/28 15:39:31;;;;;;;;;;;;;;;;;;5073968;28;1266;-78
2022/06/28 15:42:00;;;;;;;;;;;;;;;;;;5074103;28;1142;-78
2022/06/28 15:44:26;;;;;;;;;;;;;;;;;;5085807;28;932;-78
2022/06/28 15:46:53;;;;;;;;;;;;;;;;;;5092549;28;1355;-78
2022/06/28 15:49:19;;;;;;;;;;;;;;;;;;5093334;28;1063;-77
2022/06/28 15:51:45;;;;;;;;;;;;;;;;;;5093091;28;1099;-76
2022/06/28 15:54:11;;;;;;;;;;;;;;;;;;5095045;28;1052;-78
2022/06/28 15:56:37;;;;;;;;;;;;;;;;;;5094017;28;1984;-78
2022/06/28 15:59:05;;;;;;;;;;;;;;;;;;5090940;28;1027;-77
2022/06/28 16:01:31;;;;;;;;;;;;;;;;;;5054318;28;1241;-77
2022/06/28 16:03:58;;;;;;;;;;;;;;;;;;5063222;28;1443;-76
2022/06/28 16:06:24;;;;;;;;;;;;;;;;;;5053605;28;1316;-77
2022/06/28 16:08:50;;;;;;;;;;;;;;;;;;5072285;28;1135;-76
2022/06/28 16:11:18;;;;;;;;;;;;;;;;;;5074038;28;862;-80
2022/06/28 16:13:44;;;;;;;;;;;;;;;;;;5055500;28;1298;-77
2022/06/28 16:16:12;;;;;;;;;;;;;;;;;;5075496;28;1913;-79
2022/06/28 16:18:38;;;;;;;;;;;;;;;;;;5076037;28;1036;-77
2022/06/28 16:21:04;;;;;;;;;;;;;;;;;;5073445;28;925;-76
2022/06/28 16:23:30;;;;;;;;;;;;;;;;;;5075391;28;1309;-79
2022/06/28 16:25:57;;;;;;;;;;;;;;;;;;5074625;28;1332;-79
2022/06/28 16:28:23;;;;;;;;;;;;;;;;;;5074514;28;825;-78
2022/06/28 16:30:49;;;;;;;;;;;;;;;;;;5074789;28;878;-79
2022/06/28 16:33:17;;;;;;;;;;;;;;;;;;5072451;28;1375;-79
2022/06/28 16:35:43;;;;;;;;;;;;;;;;;;5069534;28;1423;-78
2022/06/28 16:38:09;;;;;;;;;;;;;;;;;;5072418;28;2000;-76
2022/06/28 16:40:36;;;;;;;;;;;;;;;;;;5073042;28;901;-77
2022/06/28 16:43:02;;;;;;;;;;;;;;;;;;5073366;28;1052;-79
2022/06/28 16:45:28;;;;;;;;;;;;;;;;;;5073873;28;1356;-78
2022/06/28 16:47:55;;;;;;;;;;;;;;;;;;5072956;28;811;-78
2022/06/28 16:50:23;;;;;;;;;;;;;;;;;;5073998;28;1071;-78
2022/06/28 16:52:49;;;;;;;;;;;;;;;;;;5073610;28;1095;-79
2022/06/28 16:55:15;;;;;;;;;;;;;;;;;;5069798;28;1226;-79
2022/06/28 16:57:42;;;;;;;;;;;;;;;;;;5066592;28;1973;-80
2022/06/28 17:00:09;;;;;;;;;;;;;;;;;;5060847;28;1285;-79
2022/06/28 17:02:35;;;;;;;;;;;;;;;;;;5064777;28;1706;-78
2022/06/28 17:05:01;;;;;;;;;;;;;;;;;;5065278;28;1483;-76
2022/06/28 17:07:29;;;;;;;;;;;;;;;;;;5040339;28;1596;-77
2022/06/28 17:09:56;;;;;;;;;;;;;;;;;;5033058;28;1367;-78
2022/06/28 17:12:22;;;;;;;;;;;;;;;;;;5067330;28;1184;-77
2022/06/28 17:14:49;;;;;;;;;;;;;;;;;;5066744;28;1299;-77
2022/06/28 17:17:15;;;;;;;;;;;;;;;;;;5063163;28;1918;-77
2022/06/28 17:19:42;;;;;;;;;;;;;;;;;;5069185;28;1437;-77
2022/06/28 17:22:08;;;;;;;;;;;;;;;;;;5068890;28;1206;-76
2022/06/28 17:24:36;;;;;;;;;;;;;;;;;;5050992;28;1112;-77
2022/06/28 17:27:02;;;;;;;;;;;;;;;;;;5066258;28;1415;-78
2022/06/28 17:29:28;;;;;;;;;;;;;;;;;;5071511;28;1107;-79
2022/06/28 17:31:54;;;;;;;;;;;;;;;;;;5054595;28;1184;-77
2022/06/28 17:34:21;;;;;;;;;;;;;;;;;;5068060;28;1352;-77
2022/06/28 17:36:48;;;;;;;;;;;;;;;;;;5049030;28;1910;-77
2022/06/28 17:39:14;;;;;;;;;;;;;;;;;;5068318;28;1112;-77
2022/06/28 17:41:41;;;;;;;;;;;;;;;;;;5068272;28;925;-78